createdAt,value
2022-08-17T00:00:43.834Z,12.53
2022-08-17T00:01:51.344Z,12.53
2022-08-17T00:02:41.137Z,12.58
2022-08-17T00:03:34.050Z,12.58
2022-08-17T00:04:33.007Z,12.53
2022-08-17T00:05:32.994Z,12.53
2022-08-17T00:06:32.980Z,12.53
2022-08-17T00:07:32.974Z,12.47
2022-08-17T00:08:32.954Z,12.58
2022-08-17T00:09:32.942Z,12.53
2022-08-17T00:10:32.939Z,12.58
2022-08-17T00:11:32.917Z,12.53
2022-08-17T00:12:42.111Z,12.58
2022-08-17T00:13:33.918Z,12.58
2022-08-17T00:14:32.878Z,12.58
2022-08-17T00:15:32.871Z,12.53
2022-08-17T00:16:55.383Z,12.58
2022-08-17T00:17:33.876Z,12.58
2022-08-17T00:19:00.918Z,12.47
2022-08-17T00:19:33.846Z,12.53
2022-08-17T00:20:34.758Z,12.53
2022-08-17T00:22:32.942Z,12.53
2022-08-17T00:22:36.492Z,12.53
2022-08-17T00:23:32.774Z,12.58
2022-08-17T00:24:32.750Z,12.64
2022-08-17T00:25:32.739Z,12.58
2022-08-17T00:26:34.643Z,12.64
2022-08-17T00:27:33.745Z,12.58
2022-08-17T00:28:33.249Z,12.53
2022-08-17T00:29:32.692Z,12.53
2022-08-17T00:30:51.025Z,12.58
2022-08-17T00:31:33.695Z,12.58
2022-08-17T00:33:11.941Z,12.53
2022-08-17T00:33:33.670Z,12.53
2022-08-17T00:34:32.626Z,12.53
2022-08-17T00:35:32.612Z,12.53
2022-08-17T00:36:32.605Z,12.58
2022-08-17T00:37:32.591Z,12.64
2022-08-17T00:38:32.582Z,12.58
2022-08-17T00:39:32.619Z,12.53
2022-08-17T00:40:40.818Z,12.47
2022-08-17T00:41:33.575Z,12.53
2022-08-17T00:42:32.527Z,12.58
2022-08-17T00:43:32.514Z,12.47
2022-08-17T00:44:32.512Z,12.64
2022-08-17T00:45:32.493Z,12.58
2022-08-17T00:46:32.479Z,12.53
2022-08-17T00:47:32.467Z,12.64
2022-08-17T00:48:32.457Z,12.53
2022-08-17T00:49:32.441Z,12.53
2022-08-17T00:50:32.437Z,12.58
2022-08-17T00:51:32.416Z,12.58
2022-08-17T00:52:32.404Z,12.58
2022-08-17T00:53:32.393Z,12.53
2022-08-17T00:54:32.380Z,12.58
2022-08-17T00:55:33.400Z,12.58
2022-08-17T00:56:32.362Z,12.53
2022-08-17T00:57:32.341Z,12.53
2022-08-17T00:58:36.241Z,12.53
2022-08-17T00:59:32.318Z,12.53
2022-08-17T01:00:32.310Z,12.53
2022-08-17T01:01:32.364Z,12.53
2022-08-17T01:02:40.475Z,12.58
2022-08-17T01:03:33.296Z,12.53
2022-08-17T01:04:32.254Z,12.53
2022-08-17T01:05:32.242Z,12.58
2022-08-17T01:06:32.228Z,12.58
2022-08-17T01:07:32.217Z,12.58
2022-08-17T01:08:32.206Z,12.58
2022-08-17T01:09:32.191Z,12.53
2022-08-17T01:11:00.003Z,12.53
2022-08-17T01:11:33.197Z,12.53
2022-08-17T01:12:32.156Z,12.53
2022-08-17T01:13:35.506Z,12.64
2022-08-17T01:14:33.163Z,12.58
2022-08-17T01:15:32.118Z,12.58
2022-08-17T01:16:32.109Z,12.58
2022-08-17T01:17:32.093Z,12.53
2022-08-17T01:18:32.079Z,12.64
2022-08-17T01:19:32.066Z,12.53
2022-08-17T01:20:32.053Z,12.53
2022-08-17T01:21:32.047Z,12.64
2022-08-17T01:22:32.029Z,12.47
2022-08-17T01:23:32.020Z,12.58
2022-08-17T01:24:33.727Z,12.53
2022-08-17T01:25:31.993Z,12.58
2022-08-17T01:26:31.980Z,12.58
2022-08-17T01:27:31.969Z,12.58
2022-08-17T01:28:36.375Z,12.53
2022-08-17T01:29:32.977Z,12.58
2022-08-17T01:30:57.792Z,12.58
2022-08-17T01:31:32.945Z,12.53
2022-08-17T01:32:31.904Z,12.53
2022-08-17T01:33:31.894Z,12.53
2022-08-17T01:34:42.873Z,12.53
2022-08-17T01:35:32.897Z,12.53
2022-08-17T01:36:31.859Z,12.53
2022-08-17T01:37:31.838Z,12.53
2022-08-17T01:38:31.997Z,12.53
2022-08-17T01:39:31.873Z,12.53
2022-08-17T01:40:31.802Z,12.47
2022-08-17T01:41:31.788Z,12.53
2022-08-17T01:42:31.774Z,12.64
2022-08-17T01:43:31.762Z,12.58
2022-08-17T01:44:31.746Z,12.53
2022-08-17T01:45:31.736Z,12.53
2022-08-17T01:46:31.723Z,12.53
2022-08-17T01:47:31.712Z,12.64
2022-08-17T01:48:31.700Z,12.53
2022-08-17T01:49:31.684Z,12.53
2022-08-17T01:50:31.673Z,12.64
2022-08-17T01:51:31.663Z,12.58
2022-08-17T01:52:31.649Z,12.58
2022-08-17T01:53:31.638Z,12.53
2022-08-17T01:54:31.620Z,12.58
2022-08-17T01:55:31.610Z,12.47
2022-08-17T01:56:31.603Z,12.58
2022-08-17T01:57:31.587Z,12.53
2022-08-17T01:58:31.572Z,12.53
2022-08-17T01:59:31.557Z,12.53
2022-08-17T02:00:46.818Z,12.69
2022-08-17T02:01:32.683Z,12.58
2022-08-17T02:02:31.703Z,12.53
2022-08-17T02:03:31.508Z,12.53
2022-08-17T02:04:31.493Z,12.53
2022-08-17T02:05:31.479Z,12.53
2022-08-17T02:06:45.106Z,12.53
2022-08-17T02:07:32.486Z,12.53
2022-08-17T02:08:39.025Z,12.58
2022-08-17T02:09:32.463Z,12.53
2022-08-17T02:10:33.904Z,12.64
2022-08-17T02:11:31.401Z,12.53
2022-08-17T02:12:39.174Z,12.58
2022-08-17T02:13:32.409Z,12.64
2022-08-17T02:14:31.363Z,12.58
2022-08-17T02:15:31.350Z,12.53
2022-08-17T02:16:36.624Z,12.53
2022-08-17T02:17:32.356Z,12.58
2022-08-17T02:18:31.313Z,12.64
2022-08-17T02:19:31.299Z,12.64
2022-08-17T02:20:42.174Z,12.69
2022-08-17T02:21:32.304Z,12.58
2022-08-17T02:22:31.260Z,12.58
2022-08-17T02:23:31.247Z,12.53
2022-08-17T02:25:01.293Z,12.58
2022-08-17T02:25:32.254Z,12.58
2022-08-17T02:26:31.209Z,12.58
2022-08-17T02:27:31.199Z,12.58
2022-08-17T02:28:31.178Z,12.53
2022-08-17T02:29:31.171Z,12.53
2022-08-17T02:31:01.615Z,12.53
2022-08-17T02:31:32.225Z,12.58
2022-08-17T02:32:31.132Z,12.58
2022-08-17T02:33:41.496Z,12.53
2022-08-17T02:34:31.106Z,12.58
2022-08-17T02:35:31.096Z,12.53
2022-08-17T02:36:31.109Z,12.58
2022-08-17T02:37:31.068Z,12.53
2022-08-17T02:38:31.058Z,12.58
2022-08-17T02:39:31.072Z,12.53
2022-08-17T02:40:35.768Z,12.53
2022-08-17T02:41:31.025Z,12.53
2022-08-17T02:42:31.007Z,12.58
2022-08-17T02:43:30.996Z,12.58
2022-08-17T02:44:39.877Z,12.58
2022-08-17T02:45:32.004Z,12.58
2022-08-17T02:46:30.953Z,12.53
2022-08-17T02:47:30.944Z,12.74
2022-08-17T02:48:32.060Z,12.53
2022-08-17T02:49:30.919Z,12.58
2022-08-17T02:50:30.925Z,12.58
2022-08-17T02:51:30.890Z,12.58
2022-08-17T02:52:42.345Z,12.47
2022-08-17T02:53:36.006Z,12.64
2022-08-17T02:54:41.791Z,12.58
2022-08-17T02:55:31.872Z,12.58
2022-08-17T02:56:30.826Z,12.53
2022-08-17T02:57:30.817Z,12.53
2022-08-17T02:58:35.510Z,12.53
2022-08-17T02:59:30.789Z,12.53
2022-08-17T03:00:30.779Z,12.47
2022-08-17T03:01:30.816Z,12.58
2022-08-17T03:02:30.749Z,12.53
2022-08-17T03:03:30.736Z,12.53
2022-08-17T03:04:30.724Z,12.53
2022-08-17T03:05:30.713Z,12.53
2022-08-17T03:06:30.702Z,12.58
2022-08-17T03:07:30.686Z,12.58
2022-08-17T03:08:30.673Z,12.53
2022-08-17T03:09:30.663Z,12.58
2022-08-17T03:10:30.648Z,12.64
2022-08-17T03:11:30.639Z,12.47
2022-08-17T03:12:30.630Z,12.58
2022-08-17T03:13:30.612Z,12.53
2022-08-17T03:14:30.597Z,12.58
2022-08-17T03:15:30.583Z,12.53
2022-08-17T03:16:30.570Z,12.53
2022-08-17T03:17:30.555Z,12.53
2022-08-17T03:18:30.545Z,12.47
2022-08-17T03:19:30.530Z,12.53
2022-08-17T03:20:30.517Z,12.53
2022-08-17T03:21:30.510Z,12.53
2022-08-17T03:22:37.216Z,12.53
2022-08-17T03:23:31.511Z,12.53
2022-08-17T03:24:30.465Z,12.58
2022-08-17T03:25:30.453Z,12.58
2022-08-17T03:26:30.447Z,12.53
2022-08-17T03:27:30.428Z,12.58
2022-08-17T03:28:30.415Z,12.58
2022-08-17T03:29:30.402Z,12.58
2022-08-17T03:30:30.388Z,12.58
2022-08-17T03:31:30.373Z,12.58
2022-08-17T03:32:30.365Z,12.58
2022-08-17T03:33:30.347Z,12.64
2022-08-17T03:34:30.341Z,12.53
2022-08-17T03:35:30.341Z,12.58
2022-08-17T03:36:30.310Z,12.58
2022-08-17T03:37:30.297Z,12.53
2022-08-17T03:38:30.284Z,12.47
2022-08-17T03:39:31.359Z,12.58
2022-08-17T03:40:57.891Z,12.69
2022-08-17T03:41:31.275Z,12.53
2022-08-17T03:42:32.004Z,12.47
2022-08-17T03:43:30.261Z,12.58
2022-08-17T03:44:30.206Z,12.53
2022-08-17T03:45:30.199Z,12.64
2022-08-17T03:46:35.175Z,12.58
2022-08-17T03:47:30.166Z,12.58
2022-08-17T03:48:30.156Z,12.53
2022-08-17T03:49:30.143Z,12.53
2022-08-17T03:50:30.134Z,12.53
2022-08-17T03:51:30.116Z,12.53
2022-08-17T03:52:30.102Z,12.53
2022-08-17T03:53:30.093Z,12.53
2022-08-17T03:54:30.083Z,12.53
2022-08-17T03:55:36.020Z,12.53
2022-08-17T03:56:31.095Z,12.58
2022-08-17T03:57:30.038Z,12.47
2022-08-17T03:58:30.025Z,12.58
2022-08-17T03:59:30.013Z,12.53
2022-08-17T04:00:30.000Z,12.53
2022-08-17T04:01:30.040Z,12.53
2022-08-17T04:02:29.977Z,12.58
2022-08-17T04:03:29.962Z,12.58
2022-08-17T04:04:29.947Z,12.53
2022-08-17T04:05:29.935Z,12.53
2022-08-17T04:06:29.924Z,12.58
2022-08-17T04:07:29.908Z,12.53
2022-08-17T04:08:29.897Z,12.58
2022-08-17T04:09:29.881Z,12.53
2022-08-17T04:10:29.872Z,12.58
2022-08-17T04:11:29.858Z,12.47
2022-08-17T04:12:29.841Z,12.47
2022-08-17T04:13:29.826Z,12.58
2022-08-17T04:14:29.816Z,12.58
2022-08-17T04:15:29.807Z,12.53
2022-08-17T04:16:29.791Z,12.58
2022-08-17T04:17:29.792Z,12.47
2022-08-17T04:18:29.768Z,12.58
2022-08-17T04:19:29.750Z,12.64
2022-08-17T04:20:29.737Z,12.58
2022-08-17T04:21:29.725Z,12.53
2022-08-17T04:22:33.628Z,12.58
2022-08-17T04:23:29.699Z,12.58
2022-08-17T04:24:29.687Z,12.64
2022-08-17T04:25:29.679Z,12.58
2022-08-17T04:26:52.645Z,12.53
2022-08-17T04:27:30.683Z,12.53
2022-08-17T04:28:29.639Z,12.53
2022-08-17T04:29:55.015Z,12.58
2022-08-17T04:30:30.643Z,12.64
2022-08-17T04:31:29.597Z,12.53
2022-08-17T04:33:05.087Z,12.53
2022-08-17T04:33:30.609Z,12.58
2022-08-17T04:34:29.561Z,12.58
2022-08-17T04:35:29.546Z,12.53
2022-08-17T04:36:29.531Z,12.58
2022-08-17T04:37:29.520Z,12.53
2022-08-17T04:38:29.506Z,12.58
2022-08-17T04:39:29.527Z,12.58
2022-08-17T04:40:29.484Z,12.58
2022-08-17T04:41:29.478Z,12.47
2022-08-17T04:42:29.455Z,12.53
2022-08-17T04:43:29.443Z,12.58
2022-08-17T04:44:36.904Z,12.64
2022-08-17T04:45:32.257Z,12.53
2022-08-17T04:46:29.401Z,12.58
2022-08-17T04:47:29.388Z,12.47
2022-08-17T04:48:35.676Z,12.58
2022-08-17T04:49:30.392Z,12.53
2022-08-17T04:50:29.351Z,12.58
2022-08-17T04:51:29.345Z,12.58
2022-08-17T04:52:29.648Z,12.58
2022-08-17T04:53:30.346Z,12.47
2022-08-17T04:54:29.297Z,12.58
2022-08-17T04:55:29.291Z,12.47
2022-08-17T04:56:29.280Z,12.53
2022-08-17T04:57:29.259Z,12.53
2022-08-17T04:58:30.286Z,12.53
2022-08-17T04:59:29.232Z,12.58
2022-08-17T05:00:29.241Z,12.58
2022-08-17T05:01:29.302Z,12.58
2022-08-17T05:02:29.197Z,12.58
2022-08-17T05:03:29.182Z,12.58
2022-08-17T05:04:35.000Z,12.58
2022-08-17T05:05:30.192Z,12.53
2022-08-17T05:06:29.143Z,12.58
2022-08-17T05:07:31.618Z,12.53
2022-08-17T05:08:29.121Z,12.64
2022-08-17T05:09:29.149Z,12.53
2022-08-17T05:10:29.092Z,12.58
2022-08-17T05:11:29.081Z,12.64
2022-08-17T05:12:29.077Z,12.47
2022-08-17T05:13:29.054Z,12.47
2022-08-17T05:14:33.320Z,12.58
2022-08-17T05:15:29.028Z,12.58
2022-08-17T05:16:29.017Z,12.47
2022-08-17T05:17:29.006Z,12.47
2022-08-17T05:18:28.990Z,12.53
2022-08-17T05:19:28.978Z,12.53
2022-08-17T05:20:28.962Z,12.53
2022-08-17T05:21:28.957Z,12.58
2022-08-17T05:22:28.937Z,12.53
2022-08-17T05:23:31.439Z,12.58
2022-08-17T05:24:38.734Z,12.58
2022-08-17T05:25:29.941Z,12.53
2022-08-17T05:26:29.480Z,12.53
2022-08-17T05:27:32.238Z,12.53
2022-08-17T05:28:29.888Z,12.58
2022-08-17T05:29:35.144Z,12.47
2022-08-17T05:30:29.867Z,12.53
2022-08-17T05:31:28.878Z,12.53
2022-08-17T05:32:38.457Z,12.53
2022-08-17T05:33:29.830Z,12.58
2022-08-17T05:34:28.782Z,12.58
2022-08-17T05:35:28.769Z,12.53
2022-08-17T05:36:38.129Z,12.64
2022-08-17T05:37:29.774Z,12.58
2022-08-17T05:38:28.734Z,12.58
2022-08-17T05:39:28.772Z,12.53
2022-08-17T05:40:28.704Z,12.53
2022-08-17T05:41:28.692Z,12.53
2022-08-17T05:42:28.683Z,12.58
2022-08-17T05:43:28.662Z,12.74
2022-08-17T05:44:28.654Z,12.58
2022-08-17T05:45:54.376Z,12.58
2022-08-17T05:46:29.656Z,12.47
2022-08-17T05:47:28.614Z,12.53
2022-08-17T05:48:35.478Z,12.53
2022-08-17T05:49:29.619Z,12.58
2022-08-17T05:50:29.946Z,12.53
2022-08-17T05:51:28.560Z,12.47
2022-08-17T05:52:28.551Z,12.58
2022-08-17T05:53:28.533Z,12.53
2022-08-17T05:54:28.544Z,12.53
2022-08-17T05:55:28.507Z,12.47
2022-08-17T05:56:29.732Z,12.58
2022-08-17T05:57:28.486Z,12.64
2022-08-17T05:58:28.472Z,12.47
2022-08-17T05:59:28.457Z,12.58
2022-08-17T06:00:30.091Z,12.58
2022-08-17T06:01:28.504Z,12.58
2022-08-17T06:02:28.418Z,12.53
2022-08-17T06:03:28.404Z,12.58
2022-08-17T06:04:28.397Z,12.58
2022-08-17T06:05:28.381Z,12.53
2022-08-17T06:06:31.422Z,12.53
2022-08-17T06:07:28.355Z,12.53
2022-08-17T06:08:28.338Z,12.58
2022-08-17T06:09:33.501Z,12.53
2022-08-17T06:10:28.449Z,12.58
2022-08-17T06:11:28.300Z,12.58
2022-08-17T06:12:28.291Z,12.58
2022-08-17T06:13:28.274Z,12.69
2022-08-17T06:14:28.261Z,12.53
2022-08-17T06:15:28.248Z,12.58
2022-08-17T06:16:34.423Z,12.53
2022-08-17T06:17:29.254Z,12.53
2022-08-17T06:18:28.208Z,12.53
2022-08-17T06:19:28.199Z,12.53
2022-08-17T06:20:28.292Z,12.64
2022-08-17T06:21:30.393Z,12.53
2022-08-17T06:22:28.163Z,12.53
2022-08-17T06:23:28.151Z,12.58
2022-08-17T06:24:28.133Z,12.58
2022-08-17T06:25:28.118Z,12.53
2022-08-17T06:26:30.512Z,12.58
2022-08-17T06:27:29.126Z,12.58
2022-08-17T06:28:28.084Z,12.53
2022-08-17T06:29:28.074Z,12.58
2022-08-17T06:30:28.155Z,12.58
2022-08-17T06:31:28.051Z,12.58
2022-08-17T06:32:28.029Z,12.53
2022-08-17T06:33:28.017Z,12.53
2022-08-17T06:34:28.010Z,12.58
2022-08-17T06:35:32.123Z,12.53
2022-08-17T06:36:29.008Z,12.58
2022-08-17T06:37:27.966Z,12.53
2022-08-17T06:38:37.735Z,12.53
2022-08-17T06:39:29.008Z,12.53
2022-08-17T06:40:27.930Z,12.58
2022-08-17T06:41:27.916Z,12.58
2022-08-17T06:43:02.054Z,12.47
2022-08-17T06:43:28.925Z,12.53
2022-08-17T06:44:44.748Z,12.58
2022-08-17T06:45:28.894Z,12.47
2022-08-17T06:46:27.851Z,12.53
2022-08-17T06:47:28.001Z,12.53
2022-08-17T06:48:27.827Z,12.53
2022-08-17T06:49:27.812Z,12.53
2022-08-17T06:50:27.804Z,12.58
2022-08-17T06:51:27.793Z,12.53
2022-08-17T06:52:43.448Z,12.53
2022-08-17T06:53:28.785Z,12.53
2022-08-17T06:54:27.742Z,12.53
2022-08-17T06:55:27.747Z,12.58
2022-08-17T06:56:53.745Z,12.53
2022-08-17T06:57:28.735Z,12.53
2022-08-17T06:58:29.519Z,12.53
2022-08-17T06:59:30.426Z,12.53
2022-08-17T07:00:28.733Z,12.58
2022-08-17T07:01:27.694Z,12.58
2022-08-17T07:02:29.523Z,12.58
2022-08-17T07:03:27.636Z,12.58
2022-08-17T07:04:27.615Z,12.58
2022-08-17T07:05:27.602Z,12.58
2022-08-17T07:06:27.584Z,12.53
2022-08-17T07:07:27.580Z,12.53
2022-08-17T07:08:31.185Z,12.53
2022-08-17T07:09:27.552Z,12.58
2022-08-17T07:10:27.530Z,12.53
2022-08-17T07:11:27.531Z,12.58
2022-08-17T07:12:27.515Z,12.53
2022-08-17T07:13:27.491Z,12.53
2022-08-17T07:14:27.486Z,12.53
2022-08-17T07:15:27.483Z,12.58
2022-08-17T07:16:27.465Z,12.53
2022-08-17T07:17:47.740Z,12.53
2022-08-17T07:18:28.470Z,12.64
2022-08-17T07:19:27.431Z,12.58
2022-08-17T07:20:27.412Z,12.58
2022-08-17T07:21:27.392Z,12.58
2022-08-17T07:22:27.384Z,12.53
2022-08-17T07:23:27.373Z,12.64
2022-08-17T07:24:30.141Z,12.47
2022-08-17T07:25:27.351Z,12.53
2022-08-17T07:26:27.339Z,12.64
2022-08-17T07:27:27.327Z,12.47
2022-08-17T07:28:27.314Z,12.47
2022-08-17T07:29:27.294Z,12.53
2022-08-17T07:30:27.295Z,12.58
2022-08-17T07:31:27.278Z,12.53
2022-08-17T07:32:27.261Z,12.53
2022-08-17T07:33:27.257Z,12.53
2022-08-17T07:34:27.244Z,12.53
2022-08-17T07:35:31.142Z,12.64
2022-08-17T07:36:30.247Z,12.58
2022-08-17T07:37:27.209Z,12.58
2022-08-17T07:38:27.292Z,12.53
2022-08-17T07:39:27.238Z,12.58
2022-08-17T07:40:27.322Z,12.53
2022-08-17T07:41:27.153Z,12.58
2022-08-17T07:42:28.172Z,12.53
2022-08-17T07:43:29.538Z,12.53
2022-08-17T07:44:27.131Z,12.58
2022-08-17T07:45:27.103Z,12.58
2022-08-17T07:46:27.091Z,12.53
2022-08-17T07:47:27.079Z,12.58
2022-08-17T07:48:27.072Z,12.53
2022-08-17T07:49:27.060Z,12.47
2022-08-17T07:50:27.123Z,12.53
2022-08-17T07:51:27.034Z,12.53
2022-08-17T07:52:51.185Z,12.15
2022-08-17T07:53:28.043Z,12.47
2022-08-17T07:54:26.999Z,12.53
2022-08-17T07:55:26.979Z,12.53
2022-08-17T07:56:26.976Z,12.53
2022-08-17T07:57:30.099Z,12.47
2022-08-17T07:58:26.954Z,12.64
2022-08-17T07:59:28.689Z,12.53
2022-08-17T08:00:32.058Z,12.53
2022-08-17T08:01:26.985Z,12.15
2022-08-17T08:02:31.911Z,12.53
2022-08-17T08:03:28.565Z,12.53
2022-08-17T08:04:59.097Z,12.58
2022-08-17T08:05:49.212Z,12.53
2022-08-17T08:06:27.880Z,12.53
2022-08-17T08:07:26.835Z,12.53
2022-08-17T08:08:26.821Z,12.58
2022-08-17T08:09:26.809Z,12.53
2022-08-17T08:10:26.799Z,12.58
2022-08-17T08:11:26.781Z,12.58
2022-08-17T08:12:32.684Z,12.53
2022-08-17T08:13:27.784Z,12.53
2022-08-17T08:14:28.621Z,12.58
2022-08-17T08:15:26.736Z,12.53
2022-08-17T08:16:26.728Z,12.58
2022-08-17T08:17:26.709Z,12.64
2022-08-17T08:18:54.369Z,12.58
2022-08-17T08:19:27.714Z,12.47
2022-08-17T08:20:37.599Z,12.53
2022-08-17T08:21:27.686Z,12.53
2022-08-17T08:22:26.652Z,12.53
2022-08-17T08:23:26.634Z,12.58
2022-08-17T08:24:30.105Z,12.58
2022-08-17T08:25:28.790Z,12.58
2022-08-17T08:26:26.592Z,12.53
2022-08-17T08:27:26.582Z,12.58
2022-08-17T08:28:26.569Z,12.58
2022-08-17T08:29:26.565Z,12.53
2022-08-17T08:30:26.547Z,12.58
2022-08-17T08:31:26.535Z,12.53
2022-08-17T08:32:26.521Z,12.64
2022-08-17T08:33:26.512Z,12.53
2022-08-17T08:34:44.539Z,12.53
2022-08-17T08:35:27.514Z,12.58
2022-08-17T08:36:56.620Z,12.64
2022-08-17T08:37:35.518Z,12.53
2022-08-17T08:38:27.485Z,12.53
2022-08-17T08:39:26.477Z,12.47
2022-08-17T08:40:26.422Z,12.58
2022-08-17T08:41:26.413Z,12.53
2022-08-17T08:42:26.393Z,12.53
2022-08-17T08:43:26.384Z,12.53
2022-08-17T08:45:00.616Z,12.53
2022-08-17T08:45:27.395Z,12.53
2022-08-17T08:46:26.347Z,12.53
2022-08-17T08:47:26.340Z,12.15
2022-08-17T08:48:56.603Z,12.53
2022-08-17T08:49:59.022Z,12.58
2022-08-17T08:50:37.086Z,12.58
2022-08-17T08:51:27.318Z,12.20
2022-08-17T08:52:26.270Z,12.26
2022-08-17T08:53:26.259Z,12.58
2022-08-17T08:54:26.476Z,12.53
2022-08-17T08:55:26.231Z,12.58
2022-08-17T08:56:26.223Z,12.58
2022-08-17T08:57:32.687Z,12.58
2022-08-17T08:58:31.957Z,12.15
2022-08-17T08:59:27.213Z,12.26
2022-08-17T09:00:26.171Z,12.53
2022-08-17T09:01:26.267Z,12.58
2022-08-17T09:02:26.144Z,12.53
2022-08-17T09:03:50.899Z,12.20
2022-08-17T09:04:27.161Z,12.58
2022-08-17T09:05:26.115Z,12.20
2022-08-17T09:06:37.902Z,12.15
2022-08-17T09:07:27.112Z,12.58
2022-08-17T09:08:26.070Z,12.15
2022-08-17T09:09:26.058Z,12.53
2022-08-17T09:10:26.051Z,12.58
2022-08-17T09:11:26.032Z,12.64
2022-08-17T09:12:26.022Z,12.58
2022-08-17T09:13:26.010Z,12.47
2022-08-17T09:14:28.512Z,12.58
2022-08-17T09:15:25.983Z,12.15
2022-08-17T09:16:25.971Z,12.53
2022-08-17T09:17:25.959Z,12.58
2022-08-17T09:19:01.849Z,12.58
2022-08-17T09:19:26.958Z,12.15
2022-08-17T09:20:27.305Z,12.53
2022-08-17T09:21:25.906Z,12.20
2022-08-17T09:22:25.905Z,12.20
2022-08-17T09:23:25.890Z,12.53
2022-08-17T09:24:25.889Z,12.15
2022-08-17T09:25:25.867Z,12.58
2022-08-17T09:26:25.844Z,12.15
2022-08-17T09:27:25.832Z,12.58
2022-08-17T09:28:25.819Z,12.53
2022-08-17T09:29:25.806Z,12.20
2022-08-17T09:30:25.796Z,12.58
2022-08-17T09:31:29.936Z,12.10
2022-08-17T09:32:26.797Z,12.20
2022-08-17T09:33:25.750Z,12.58
2022-08-17T09:34:32.137Z,12.58
2022-08-17T09:35:36.597Z,12.20
2022-08-17T09:36:26.750Z,12.15
2022-08-17T09:37:25.707Z,12.15
2022-08-17T09:38:30.340Z,12.15
2022-08-17T09:39:26.777Z,12.15
2022-08-17T09:40:25.674Z,12.15
2022-08-17T09:41:25.651Z,12.58
2022-08-17T09:42:25.636Z,12.53
2022-08-17T09:43:25.629Z,12.20
2022-08-17T09:44:25.620Z,12.20
2022-08-17T09:45:25.607Z,12.53
2022-08-17T09:46:25.596Z,12.53
2022-08-17T09:47:25.575Z,12.10
2022-08-17T09:48:25.567Z,12.15
2022-08-17T09:49:25.550Z,12.10
2022-08-17T09:51:04.928Z,12.10
2022-08-17T09:51:26.561Z,12.20
2022-08-17T09:52:25.520Z,12.10
2022-08-17T09:53:25.506Z,12.20
2022-08-17T09:54:40.396Z,12.15
2022-08-17T09:55:26.517Z,12.58
2022-08-17T09:56:25.470Z,12.15
2022-08-17T09:57:30.354Z,12.15
2022-08-17T09:58:29.008Z,12.15
2022-08-17T09:59:25.415Z,12.15
2022-08-17T10:00:25.400Z,12.15
2022-08-17T10:01:25.447Z,12.20
2022-08-17T10:02:25.378Z,12.20
2022-08-17T10:03:25.367Z,12.26
2022-08-17T10:04:29.494Z,12.20
2022-08-17T10:05:25.339Z,12.31
2022-08-17T10:06:25.327Z,12.20
2022-08-17T10:07:25.309Z,12.20
2022-08-17T10:08:25.286Z,12.26
2022-08-17T10:09:25.284Z,12.20
2022-08-17T10:10:25.258Z,12.20
2022-08-17T10:11:33.722Z,12.15
2022-08-17T10:12:30.232Z,12.26
2022-08-17T10:13:25.229Z,12.15
2022-08-17T10:14:37.747Z,12.20
2022-08-17T10:15:26.235Z,12.20
2022-08-17T10:16:25.194Z,12.15
2022-08-17T10:17:25.184Z,12.15
2022-08-17T10:18:25.165Z,12.20
2022-08-17T10:19:26.185Z,12.15
2022-08-17T10:20:25.133Z,12.10
2022-08-17T10:21:25.123Z,12.10
2022-08-17T10:22:35.330Z,12.15
2022-08-17T10:23:26.124Z,12.15
2022-08-17T10:24:25.087Z,12.20
2022-08-17T10:25:37.595Z,12.15
2022-08-17T10:26:26.089Z,12.15
2022-08-17T10:27:25.043Z,12.20
2022-08-17T10:28:29.522Z,12.20
2022-08-17T10:29:25.016Z,12.20
2022-08-17T10:30:25.005Z,12.20
2022-08-17T10:31:40.253Z,12.20
2022-08-17T10:32:26.012Z,12.15
2022-08-17T10:33:24.970Z,12.15
2022-08-17T10:34:24.964Z,12.15
2022-08-17T10:35:24.943Z,12.15
2022-08-17T10:36:24.928Z,12.20
2022-08-17T10:37:24.916Z,12.10
2022-08-17T10:38:24.907Z,12.15
2022-08-17T10:39:24.892Z,12.20
2022-08-17T10:40:26.467Z,12.15
2022-08-17T10:41:24.863Z,12.26
2022-08-17T10:42:30.380Z,12.15
2022-08-17T10:43:25.869Z,12.15
2022-08-17T10:44:38.182Z,12.15
2022-08-17T10:45:25.839Z,12.15
2022-08-17T10:46:30.019Z,12.15
2022-08-17T10:47:25.814Z,12.15
2022-08-17T10:48:24.770Z,12.26
2022-08-17T10:49:24.756Z,12.15
2022-08-17T10:50:24.740Z,12.20
2022-08-17T10:51:24.732Z,12.20
2022-08-17T10:52:24.827Z,12.20
2022-08-17T10:53:24.703Z,12.15
2022-08-17T10:54:24.694Z,12.10
2022-08-17T10:55:24.679Z,12.20
2022-08-17T10:56:24.664Z,12.15
2022-08-17T10:57:24.651Z,12.15
2022-08-17T10:58:24.644Z,12.10
2022-08-17T10:59:24.627Z,12.15
2022-08-17T11:00:27.647Z,12.20
2022-08-17T11:01:24.670Z,12.15
2022-08-17T11:02:24.586Z,12.20
2022-08-17T11:03:24.575Z,12.20
2022-08-17T11:04:25.215Z,12.20
2022-08-17T11:05:24.543Z,12.20
2022-08-17T11:06:24.538Z,12.20
2022-08-17T11:07:24.524Z,12.26
2022-08-17T11:08:24.495Z,12.15
2022-08-17T11:09:24.491Z,12.15
2022-08-17T11:10:24.474Z,12.15
2022-08-17T11:11:24.474Z,12.15
2022-08-17T11:12:24.451Z,12.15
2022-08-17T11:13:24.441Z,12.10
2022-08-17T11:14:24.430Z,12.10
2022-08-17T11:15:24.414Z,12.26
2022-08-17T11:16:24.396Z,12.20
2022-08-17T11:17:24.374Z,12.20
2022-08-17T11:18:24.370Z,12.15
2022-08-17T11:19:24.359Z,12.15
2022-08-17T11:20:24.349Z,12.15
2022-08-17T11:21:24.334Z,12.20
2022-08-17T11:22:24.318Z,12.15
2022-08-17T11:23:24.305Z,12.20
2022-08-17T11:24:24.294Z,12.20
2022-08-17T11:25:24.277Z,12.15
2022-08-17T11:26:24.268Z,12.20
2022-08-17T11:27:24.255Z,12.20
2022-08-17T11:28:24.233Z,12.15
2022-08-17T11:29:24.836Z,12.15
2022-08-17T11:30:24.206Z,12.15
2022-08-17T11:31:38.550Z,12.15
2022-08-17T11:32:24.182Z,12.15
2022-08-17T11:33:24.174Z,12.15
2022-08-17T11:34:24.162Z,12.15
2022-08-17T11:35:24.147Z,12.15
2022-08-17T11:36:24.131Z,12.20
2022-08-17T11:37:24.121Z,12.26
2022-08-17T11:38:24.104Z,12.15
2022-08-17T11:39:24.096Z,12.26
2022-08-17T11:40:24.077Z,12.20
2022-08-17T11:41:24.064Z,12.20
2022-08-17T11:42:24.060Z,12.20
2022-08-17T11:43:25.657Z,12.26
2022-08-17T11:44:24.020Z,12.20
2022-08-17T11:45:32.357Z,12.15
2022-08-17T11:46:25.035Z,12.20
2022-08-17T11:47:23.983Z,12.31
2022-08-17T11:48:28.152Z,12.20
2022-08-17T11:49:23.964Z,12.10
2022-08-17T11:50:27.706Z,12.15
2022-08-17T11:51:23.939Z,12.10
2022-08-17T11:52:23.928Z,12.20
2022-08-17T11:53:23.915Z,12.15
2022-08-17T11:54:33.356Z,12.15
2022-08-17T11:55:35.085Z,12.20
2022-08-17T11:56:24.903Z,12.10
2022-08-17T11:57:23.862Z,12.20
2022-08-17T11:58:23.854Z,12.20
2022-08-17T11:59:23.828Z,12.15
2022-08-17T12:00:23.825Z,12.26
2022-08-17T12:01:23.815Z,12.15
2022-08-17T12:02:23.802Z,12.20
2022-08-17T12:03:23.870Z,12.10
2022-08-17T12:04:23.821Z,12.26
2022-08-17T12:05:23.760Z,12.15
2022-08-17T12:06:23.754Z,12.20
2022-08-17T12:07:24.768Z,12.10
2022-08-17T12:08:23.726Z,12.15
2022-08-17T12:09:23.713Z,12.15
2022-08-17T12:10:23.703Z,12.20
2022-08-17T12:12:11.400Z,12.20
2022-08-17T12:12:24.704Z,12.15
2022-08-17T12:13:23.665Z,12.15
2022-08-17T12:14:45.034Z,12.15
2022-08-17T12:15:24.675Z,12.20
2022-08-17T12:16:23.627Z,12.20
2022-08-17T12:17:39.408Z,12.15
2022-08-17T12:18:24.627Z,12.15
2022-08-17T12:19:23.589Z,12.15
2022-08-17T12:20:23.575Z,12.10
2022-08-17T12:21:23.560Z,12.15
2022-08-17T12:22:23.547Z,12.15
2022-08-17T12:23:23.537Z,12.04
2022-08-17T12:24:23.525Z,12.15
2022-08-17T12:25:23.511Z,12.10
2022-08-17T12:26:23.500Z,12.20
2022-08-17T12:27:48.928Z,12.15
2022-08-17T12:28:24.497Z,12.20
2022-08-17T12:29:35.403Z,12.20
2022-08-17T12:30:24.479Z,12.20
2022-08-17T12:31:23.435Z,12.20
2022-08-17T12:32:23.422Z,12.15
2022-08-17T12:33:27.918Z,12.15
2022-08-17T12:34:23.403Z,12.20
2022-08-17T12:35:23.385Z,12.20
2022-08-17T12:36:23.372Z,12.10
2022-08-17T12:37:23.361Z,12.15
2022-08-17T12:38:31.958Z,12.15
2022-08-17T12:39:25.045Z,12.15
2022-08-17T12:40:23.322Z,12.26
2022-08-17T12:41:23.333Z,12.20
2022-08-17T12:42:23.297Z,12.15
2022-08-17T12:43:23.282Z,12.15
2022-08-17T12:44:23.283Z,12.20
2022-08-17T12:45:23.266Z,12.20
2022-08-17T12:46:23.261Z,12.10
2022-08-17T12:47:23.396Z,12.15
2022-08-17T12:48:23.229Z,12.20
2022-08-17T12:49:23.211Z,12.20
2022-08-17T12:50:28.955Z,12.26
2022-08-17T12:51:24.220Z,12.20
2022-08-17T12:52:23.175Z,12.15